Terminal Aerodrome Forecast
Issued by NWS

Home | Current Version | Previous Version | Graphics & Text | Print | Product List | Glossary On
Versions: 1 2 3 4 5 6 7 8 9 10 11 12 13 14 15 16 17 18
000
FTUS41 KCLE 270812 AAA
TAFFDY
TAF AMD
KFDY 270812Z 2708/2806 00000KT 6SM BR BKN050
      TEMPO 2710/2712 2SM BR SCT050
     FM271200 VRB03KT P6SM SCT025
      TEMPO 2713/2716 BKN025
     FM271600 VRB03KT P6SM BKN040
     FM280100 VRB03KT P6SM FEW040=

USA.gov is the U.S. government's official web portal to all federal, state and local government web resources and services.